La Sarnosa, Argentina
Current Conditions -  °F | °C
As of 9:00 AM on Thursday 30 Oct 2014 (Local Time) from SARE Reporting Station
Thunderstorm Thunderstorm  
Wind Chill: 21°   Ceiling: 1500
Heat Index: 21°   Visibility: 3mi
Dew Point: 20°   Wind: 12mph
Humidity: 94%   Direction: 110°ESE
Pressure: 29.77"   Gusts: NA
Location:  29.23°S, 60.42°W
Report Text: SARE 301200Z 11010KT 5000 TSRA FEW007 BKN015 OVC040 FEW056CB 21/20 Q1008
Loading
Personal Weather Stations






























Interactive Weather Map
Tropical Storm Tracking
New forecast layout! Learn more

10-Day Weather Forecast

Advertisements
Track Severe Weather on mobile